Time;durP1;ratioP1;P1;durP2;ratioP2;P2;SDS_P1;SDS_P2;PMS_P1;PMS_P2;Temp;Humidity;BMP_temperature;BMP_pressure;BME280_temperature;BME280_humidity;BME280_pressure;Samples;Min_cycle;Max_cycle;Signal;HPM_P1;HPM_P2
2024/02/11 00:00:05;;;;;;;17.77;12.57;;;;;;;;;;5077366;28;20043;-34
2024/02/11 00:02:37;;;;;;;16.80;11.98;;;;;;;;;;5076927;28;20262;-34
2024/02/11 00:05:02;;;;;;;19.40;12.67;;;;;;;;;;5076840;28;20061;-33
2024/02/11 00:07:27;;;;;;;19.33;12.98;;;;;;;;;;5075654;28;20008;-33
2024/02/11 00:09:52;;;;;;;18.43;12.93;;;;;;;;;;5076904;28;20020;-34
2024/02/11 00:12:17;;;;;;;21.03;12.47;;;;;;;;;;5075156;28;20342;-34
2024/02/11 00:14:44;;;;;;;20.52;12.70;;;;;;;;;;5076716;28;20648;-35
2024/02/11 00:17:10;;;;;;;16.27;11.45;;;;;;;;;;5075199;28;20036;-34
2024/02/11 00:19:35;;;;;;;16.73;12.45;;;;;;;;;;5076398;28;20506;-34
2024/02/11 00:22:01;;;;;;;16.85;12.02;;;;;;;;;;5076256;28;20491;-34
2024/02/11 00:24:29;;;;;;;16.27;11.80;;;;;;;;;;5076290;28;20025;-34
2024/02/11 00:26:55;;;;;;;19.02;12.38;;;;;;;;;;5076270;28;20103;-34
2024/02/11 00:29:20;;;;;;;17.83;12.15;;;;;;;;;;5076533;28;20052;-34
2024/02/11 00:31:45;;;;;;;18.20;11.57;;;;;;;;;;5076951;28;20016;-34
2024/02/11 00:34:10;;;;;;;17.43;12.17;;;;;;;;;;5076141;28;20678;-34
2024/02/11 00:36:36;;;;;;;16.83;12.40;;;;;;;;;;5076685;28;20110;-34
2024/02/11 00:39:01;;;;;;;18.13;12.35;;;;;;;;;;5075946;28;20321;-34
2024/02/11 00:41:28;;;;;;;20.87;12.73;;;;;;;;;;5075661;28;20041;-34
2024/02/11 00:43:53;;;;;;;16.67;12.50;;;;;;;;;;5076221;28;20251;-34
2024/02/11 00:46:18;;;;;;;18.10;12.73;;;;;;;;;;5075937;28;20371;-34
2024/02/11 00:48:46;;;;;;;18.10;12.07;;;;;;;;;;5076487;28;20251;-33
2024/02/11 00:51:12;;;;;;;19.92;13.52;;;;;;;;;;5076400;28;20337;-34
2024/02/11 00:53:37;;;;;;;19.60;12.88;;;;;;;;;;5075781;28;20095;-34
2024/02/11 00:56:03;;;;;;;17.90;13.00;;;;;;;;;;5075741;28;20020;-34
2024/02/11 00:58:30;;;;;;;18.15;13.43;;;;;;;;;;5075202;28;20058;-33
2024/02/11 01:00:55;;;;;;;23.38;13.32;;;;;;;;;;5075902;28;20024;-34
2024/02/11 01:03:20;;;;;;;19.80;13.13;;;;;;;;;;5075662;28;20039;-34
2024/02/11 01:05:45;;;;;;;18.40;12.88;;;;;;;;;;5075534;28;20282;-33
2024/02/11 01:08:11;;;;;;;18.53;13.20;;;;;;;;;;5075448;28;20551;-33
2024/02/11 01:10:36;;;;;;;22.70;14.13;;;;;;;;;;5075915;28;20323;-33
2024/02/11 01:13:02;;;;;;;20.47;13.57;;;;;;;;;;5075841;28;20021;-33
2024/02/11 01:15:27;;;;;;;20.38;12.82;;;;;;;;;;5075619;28;20263;-33
2024/02/11 01:17:52;;;;;;;18.58;13.13;;;;;;;;;;5075233;28;20024;-33
2024/02/11 01:20:18;;;;;;;18.07;12.43;;;;;;;;;;5075291;28;20012;-33
2024/02/11 01:22:43;;;;;;;19.30;13.00;;;;;;;;;;5075243;28;20718;-32
2024/02/11 01:25:13;;;;;;;18.25;13.00;;;;;;;;;;5075429;28;20346;-33
2024/02/11 01:27:38;;;;;;;17.30;12.55;;;;;;;;;;5075411;28;20016;-32
2024/02/11 01:30:04;;;;;;;18.65;12.65;;;;;;;;;;5073837;28;20456;-33
2024/02/11 01:32:29;;;;;;;18.65;13.07;;;;;;;;;;5075592;28;20028;-33
2024/02/11 01:34:54;;;;;;;20.17;12.97;;;;;;;;;;5074529;28;20017;-33
2024/02/11 01:37:20;;;;;;;18.57;13.20;;;;;;;;;;5075396;28;20308;-33
2024/02/11 01:39:45;;;;;;;21.33;13.40;;;;;;;;;;5075491;28;20279;-33
2024/02/11 01:42:10;;;;;;;19.40;13.02;;;;;;;;;;5075108;28;20258;-34
2024/02/11 01:44:35;;;;;;;19.73;12.37;;;;;;;;;;5075384;28;20066;-34
2024/02/11 01:47:03;;;;;;;19.57;13.03;;;;;;;;;;5074731;28;20725;-33
2024/02/11 01:49:28;;;;;;;18.10;12.43;;;;;;;;;;5074652;28;20623;-34
2024/02/11 01:51:54;;;;;;;19.73;13.32;;;;;;;;;;5075045;28;20099;-34
2024/02/11 01:54:20;;;;;;;18.10;12.48;;;;;;;;;;5074533;28;20380;-34
2024/02/11 01:56:48;;;;;;;19.90;13.68;;;;;;;;;;5074590;28;20021;-34
2024/02/11 01:59:14;;;;;;;17.08;12.13;;;;;;;;;;5074967;28;20028;-33
2024/02/11 02:01:39;;;;;;;18.90;13.00;;;;;;;;;;5074478;28;20069;-33
2024/02/11 02:04:04;;;;;;;18.48;12.82;;;;;;;;;;5074698;28;20091;-35
2024/02/11 02:06:30;;;;;;;19.33;13.13;;;;;;;;;;5074219;28;20126;-33
2024/02/11 02:08:55;;;;;;;18.50;12.80;;;;;;;;;;5074620;28;20024;-33
2024/02/11 02:11:21;;;;;;;18.05;13.23;;;;;;;;;;5074455;28;20270;-34
2024/02/11 02:13:47;;;;;;;19.80;12.90;;;;;;;;;;5074166;28;20030;-34
2024/02/11 02:16:12;;;;;;;16.25;12.02;;;;;;;;;;5074772;28;20020;-33
2024/02/11 02:18:37;;;;;;;18.07;12.87;;;;;;;;;;5074040;28;20103;-33
2024/02/11 02:21:06;;;;;;;19.85;13.20;;;;;;;;;;5074377;28;20575;-32
2024/02/11 02:23:31;;;;;;;18.63;12.50;;;;;;;;;;5072793;28;20020;-33
2024/02/11 02:25:57;;;;;;;19.03;13.10;;;;;;;;;;5074090;28;20020;-33
2024/02/11 02:28:23;;;;;;;19.52;12.63;;;;;;;;;;5074249;28;20266;-34
2024/02/11 02:30:48;;;;;;;20.27;12.68;;;;;;;;;;5073880;28;20493;-33
2024/02/11 02:33:14;;;;;;;19.30;12.37;;;;;;;;;;5073909;28;20021;-33
2024/02/11 02:35:39;;;;;;;18.40;13.02;;;;;;;;;;5073321;28;20263;-33
2024/02/11 02:38:05;;;;;;;18.55;12.90;;;;;;;;;;5073790;28;20025;-33
2024/02/11 02:40:31;;;;;;;18.42;12.52;;;;;;;;;;5074000;28;20100;-34
2024/02/11 02:43:00;;;;;;;19.17;12.77;;;;;;;;;;5074282;28;20043;-34
2024/02/11 02:45:25;;;;;;;20.13;12.68;;;;;;;;;;5073656;28;20013;-33
2024/02/11 02:47:51;;;;;;;17.23;12.10;;;;;;;;;;5074140;28;20032;-30
2024/02/11 02:50:16;;;;;;;17.50;12.63;;;;;;;;;;5074215;28;20051;-30
2024/02/11 02:52:42;;;;;;;16.30;11.47;;;;;;;;;;5073612;28;20016;-30
2024/02/11 02:55:07;;;;;;;17.50;11.90;;;;;;;;;;5073850;28;20279;-28
2024/02/11 02:57:34;;;;;;;17.65;11.88;;;;;;;;;;5073461;28;20020;-28
2024/02/11 03:00:00;;;;;;;16.73;11.70;;;;;;;;;;5073832;28;20017;-30
2024/02/11 03:02:27;;;;;;;17.40;11.93;;;;;;;;;;5073716;28;20499;-28
2024/02/11 03:04:54;;;;;;;17.08;11.95;;;;;;;;;;5072664;28;20017;-28
2024/02/11 03:07:19;;;;;;;20.70;11.93;;;;;;;;;;5073435;28;20013;-29
2024/02/11 03:09:44;;;;;;;17.03;12.53;;;;;;;;;;5073988;28;20122;-28
2024/02/11 03:12:09;;;;;;;17.60;11.57;;;;;;;;;;5073260;28;20610;-29
2024/02/11 03:14:35;;;;;;;18.70;12.47;;;;;;;;;;5073929;28;20251;-29
2024/02/11 03:17:00;;;;;;;17.60;12.00;;;;;;;;;;5073352;28;20656;-29
2024/02/11 03:19:26;;;;;;;18.02;12.45;;;;;;;;;;5073174;28;20281;-29
2024/02/11 03:21:52;;;;;;;17.08;12.10;;;;;;;;;;5073170;28;20021;-29
2024/02/11 03:24:17;;;;;;;17.02;11.95;;;;;;;;;;5073215;28;20016;-30
2024/02/11 03:26:43;;;;;;;20.73;12.03;;;;;;;;;;5073282;28;20025;-29
2024/02/11 03:29:08;;;;;;;21.27;12.43;;;;;;;;;;5071912;28;20340;-29
2024/02/11 03:31:34;;;;;;;16.70;11.88;;;;;;;;;;5073463;28;20262;-29
2024/02/11 03:34:00;;;;;;;19.55;12.63;;;;;;;;;;5073140;28;20017;-29
2024/02/11 03:36:26;;;;;;;19.05;12.32;;;;;;;;;;5073157;28;20133;-29
2024/02/11 03:38:52;;;;;;;17.67;12.40;;;;;;;;;;5072988;28;20012;-29
2024/02/11 03:41:18;;;;;;;18.60;12.60;;;;;;;;;;5073117;28;20023;-29
2024/02/11 03:43:43;;;;;;;21.65;12.25;;;;;;;;;;5073419;28;20606;-29
2024/02/11 03:46:08;;;;;;;18.30;13.00;;;;;;;;;;5073311;28;20025;-29
2024/02/11 03:48:34;;;;;;;18.33;11.82;;;;;;;;;;5073296;28;20405;-35
2024/02/11 03:51:01;;;;;;;18.47;12.30;;;;;;;;;;5072949;28;20104;-35
2024/02/11 03:53:27;;;;;;;15.95;11.63;;;;;;;;;;5073192;28;20361;-34
2024/02/11 03:55:52;;;;;;;15.98;11.82;;;;;;;;;;5073226;28;20491;-35
2024/02/11 03:58:18;;;;;;;18.23;12.27;;;;;;;;;;5072809;28;20460;-35
2024/02/11 04:00:47;;;;;;;16.65;12.23;;;;;;;;;;5072966;28;20261;-35
2024/02/11 04:03:14;;;;;;;15.68;11.48;;;;;;;;;;5072870;28;20035;-36
2024/02/11 04:05:43;;;;;;;17.25;11.90;;;;;;;;;;5072854;28;20169;-35
2024/02/11 04:08:08;;;;;;;16.77;11.68;;;;;;;;;;5072838;28;20074;-35
2024/02/11 04:10:36;;;;;;;20.43;12.17;;;;;;;;;;5072938;28;20020;-35
2024/02/11 04:13:02;;;;;;;17.42;12.18;;;;;;;;;;5073046;28;20851;-35
2024/02/11 04:15:27;;;;;;;16.48;11.85;;;;;;;;;;5073389;28;20060;-35
2024/02/11 04:17:53;;;;;;;16.23;12.02;;;;;;;;;;5076359;28;20375;-35
2024/02/11 04:20:26;;;;;;;17.17;11.93;;;;;;;;;;5076932;28;20024;-35
2024/02/11 04:22:55;;;;;;;20.48;12.93;;;;;;;;;;5076365;28;20023;-35
2024/02/11 04:25:22;;;;;;;17.73;12.13;;;;;;;;;;5076590;28;20482;-35
2024/02/11 04:27:47;;;;;;;17.02;12.18;;;;;;;;;;5076350;28;20397;-35
2024/02/11 04:30:15;;;;;;;18.15;12.35;;;;;;;;;;5076252;28;20020;-35
2024/02/11 04:32:43;;;;;;;17.58;12.45;;;;;;;;;;5076497;28;20063;-35
2024/02/11 04:35:12;;;;;;;14.75;11.05;;;;;;;;;;5076174;28;20021;-34
2024/02/11 04:37:39;;;;;;;15.75;12.30;;;;;;;;;;5076288;28;20016;-35
2024/02/11 04:40:06;;;;;;;17.27;11.75;;;;;;;;;;5076090;28;20012;-35
2024/02/11 04:42:34;;;;;;;19.27;12.23;;;;;;;;;;5076320;28;20066;-34
2024/02/11 04:44:59;;;;;;;18.77;12.43;;;;;;;;;;5076049;28;20088;-35
2024/02/11 04:47:24;;;;;;;18.48;13.25;;;;;;;;;;5076249;28;20035;-37
2024/02/11 04:49:53;;;;;;;18.90;12.70;;;;;;;;;;5075941;28;20075;-36
2024/02/11 04:52:18;;;;;;;19.00;12.60;;;;;;;;;;5075822;28;20024;-35
2024/02/11 04:54:47;;;;;;;19.65;12.93;;;;;;;;;;5076100;28;20024;-35
2024/02/11 04:57:16;;;;;;;18.98;13.23;;;;;;;;;;5075963;28;20487;-35
2024/02/11 04:59:42;;;;;;;17.67;13.02;;;;;;;;;;5075889;28;20104;-35
2024/02/11 05:02:08;;;;;;;19.10;13.70;;;;;;;;;;5075633;28;20032;-35
2024/02/11 05:04:33;;;;;;;18.67;13.10;;;;;;;;;;5075894;28;20477;-36
2024/02/11 05:06:58;;;;;;;21.27;13.93;;;;;;;;;;5075460;28;20052;-35
2024/02/11 05:09:27;;;;;;;18.70;13.80;;;;;;;;;;5075821;28;20267;-36
2024/02/11 05:11:54;;;;;;;19.77;13.73;;;;;;;;;;5075640;28;20467;-35
2024/02/11 05:14:19;;;;;;;20.88;14.38;;;;;;;;;;5075713;28;20091;-35
2024/02/11 05:16:45;;;;;;;19.58;14.07;;;;;;;;;;5075670;28;20456;-35
2024/02/11 05:19:14;;;;;;;18.10;13.30;;;;;;;;;;5075569;28;20020;-36
2024/02/11 05:21:40;;;;;;;21.55;13.80;;;;;;;;;;5075580;28;20021;-36
2024/02/11 05:24:05;;;;;;;19.60;14.30;;;;;;;;;;5075488;28;20460;-35
2024/02/11 05:26:30;;;;;;;20.65;14.10;;;;;;;;;;5074651;28;20040;-35
2024/02/11 05:29:01;;;;;;;21.25;14.52;;;;;;;;;;5075167;28;20027;-35
2024/02/11 05:31:28;;;;;;;19.83;13.57;;;;;;;;;;5075075;28;20024;-35
2024/02/11 05:33:55;;;;;;;20.80;14.68;;;;;;;;;;5075281;28;20424;-36
2024/02/11 05:36:20;;;;;;;20.48;14.50;;;;;;;;;;5075243;28;20387;-36
2024/02/11 05:38:47;;;;;;;18.60;13.73;;;;;;;;;;5074877;28;20021;-36
2024/02/11 05:41:12;;;;;;;20.88;14.45;;;;;;;;;;5075485;28;20020;-35
2024/02/11 05:43:37;;;;;;;19.83;14.03;;;;;;;;;;5075350;28;20026;-35
2024/02/11 05:46:03;;;;;;;19.53;14.13;;;;;;;;;;5074760;28;20657;-36
2024/02/11 05:48:28;;;;;;;20.52;13.98;;;;;;;;;;5074981;28;20261;-35
2024/02/11 05:50:54;;;;;;;21.83;14.48;;;;;;;;;;5074697;28;20013;-35
2024/02/11 05:53:19;;;;;;;22.90;14.85;;;;;;;;;;5074630;28;20074;-35
2024/02/11 05:55:44;;;;;;;18.73;14.47;;;;;;;;;;5074845;28;20100;-34
2024/02/11 05:58:09;;;;;;;23.15;13.95;;;;;;;;;;5074700;28;20278;-35
2024/02/11 06:00:36;;;;;;;19.42;13.70;;;;;;;;;;5074561;28;20073;-35
2024/02/11 06:03:01;;;;;;;20.25;14.18;;;;;;;;;;5074467;28;20021;-35
2024/02/11 06:05:27;;;;;;;20.00;14.43;;;;;;;;;;5074330;28;20062;-35
2024/02/11 06:07:59;;;;;;;22.45;14.70;;;;;;;;;;5074634;28;20447;-35
2024/02/11 06:10:25;;;;;;;23.67;14.70;;;;;;;;;;5074545;28;20020;-35
2024/02/11 06:12:50;;;;;;;19.50;14.55;;;;;;;;;;5074331;28;20070;-35
2024/02/11 06:15:20;;;;;;;22.33;14.60;;;;;;;;;;5074476;28;20395;-36
2024/02/11 06:17:45;;;;;;;21.80;14.80;;;;;;;;;;5074376;28;20100;-35
2024/02/11 06:20:13;;;;;;;21.08;15.05;;;;;;;;;;5074111;28;20100;-36
2024/02/11 06:22:42;;;;;;;21.45;15.10;;;;;;;;;;5073960;28;20020;-35
2024/02/11 06:25:08;;;;;;;22.20;15.13;;;;;;;;;;5074284;28;20533;-35
2024/02/11 06:27:33;;;;;;;20.92;14.48;;;;;;;;;;5074287;28;20021;-36
2024/02/11 06:29:59;;;;;;;21.83;15.20;;;;;;;;;;5074229;28;20091;-35
2024/02/11 06:32:24;;;;;;;21.48;15.50;;;;;;;;;;5074169;28;20016;-35
2024/02/11 06:34:52;;;;;;;23.65;15.23;;;;;;;;;;5074093;28;20040;-35
2024/02/11 06:37:17;;;;;;;21.23;14.95;;;;;;;;;;5074080;28;20036;-35
2024/02/11 06:39:42;;;;;;;22.33;15.67;;;;;;;;;;5073540;28;20024;-35
2024/02/11 06:42:11;;;;;;;24.88;15.82;;;;;;;;;;5073975;28;20289;-35
2024/02/11 06:44:38;;;;;;;23.63;16.35;;;;;;;;;;5073735;28;20051;-35
2024/02/11 06:47:03;;;;;;;24.85;17.13;;;;;;;;;;5073966;28;20021;-35
2024/02/11 06:49:29;;;;;;;13.80;10.15;;;;;;;;;;5074265;28;20097;-35
2024/02/11 06:51:56;;;;;;;15.17;10.40;;;;;;;;;;5074183;28;20020;-35
2024/02/11 06:54:25;;;;;;;14.60;9.85;;;;;;;;;;5073883;28;20738;-35
2024/02/11 06:56:52;;;;;;;16.83;10.10;;;;;;;;;;5073821;28;20425;-35
2024/02/11 06:59:18;;;;;;;15.98;10.00;;;;;;;;;;5073682;28;20402;-35
2024/02/11 07:01:43;;;;;;;15.32;10.35;;;;;;;;;;5073750;28;20062;-35
2024/02/11 07:04:12;;;;;;;13.52;9.30;;;;;;;;;;5073972;28;20016;-35
2024/02/11 07:06:40;;;;;;;13.93;8.65;;;;;;;;;;5073323;28;20496;-36
2024/02/11 07:09:10;;;;;;;12.93;8.60;;;;;;;;;;5073954;28;20104;-35
2024/02/11 07:11:36;;;;;;;12.68;8.30;;;;;;;;;;5073531;28;20016;-35
2024/02/11 07:14:01;;;;;;;12.50;7.90;;;;;;;;;;5073423;28;20025;-35
2024/02/11 07:16:28;;;;;;;11.87;7.63;;;;;;;;;;5072045;28;20277;-35
2024/02/11 07:18:53;;;;;;;11.23;7.38;;;;;;;;;;5073513;28;20282;-35
2024/02/11 07:21:19;;;;;;;12.48;7.72;;;;;;;;;;5073608;28;20017;-34
2024/02/11 07:23:44;;;;;;;12.20;7.57;;;;;;;;;;5073520;28;20040;-35
2024/02/11 07:26:12;;;;;;;11.50;6.97;;;;;;;;;;5073302;28;20122;-35
2024/02/11 07:28:37;;;;;;;12.23;6.75;;;;;;;;;;5073147;28;20052;-36
2024/02/11 07:31:03;;;;;;;16.77;6.85;;;;;;;;;;5073234;28;20060;-38
2024/02/11 07:33:28;;;;;;;12.55;6.65;;;;;;;;;;5073438;28;20027;-36
2024/02/11 07:35:53;;;;;;;14.43;6.00;;;;;;;;;;5073191;28;20514;-36
2024/02/11 07:38:19;;;;;;;14.70;5.95;;;;;;;;;;5073049;28;20028;-35
2024/02/11 07:40:45;;;;;;;10.27;5.63;;;;;;;;;;5073221;28;20043;-35
2024/02/11 07:43:10;;;;;;;13.55;6.05;;;;;;;;;;5073761;28;20254;-36
2024/02/11 07:45:38;;;;;;;12.30;5.85;;;;;;;;;;5073079;28;20013;-36
2024/02/11 07:48:05;;;;;;;15.80;5.63;;;;;;;;;;5073608;28;20016;-36
2024/02/11 07:50:33;;;;;;;10.07;5.20;;;;;;;;;;5073856;28;20016;-36
2024/02/11 07:52:58;;;;;;;12.52;5.35;;;;;;;;;;5076993;28;20103;-36
2024/02/11 07:55:23;;;;;;;9.27;4.50;;;;;;;;;;5077522;28;20057;-36
2024/02/11 07:57:49;;;;;;;12.52;4.53;;;;;;;;;;5076993;28;20748;-36
2024/02/11 08:00:14;;;;;;;14.32;3.80;;;;;;;;;;5077118;28;20461;-36
2024/02/11 08:02:39;;;;;;;11.60;3.70;;;;;;;;;;5077059;28;20021;-35
2024/02/11 08:05:06;;;;;;;11.87;3.37;;;;;;;;;;5077108;28;20399;-37
2024/02/11 08:07:31;;;;;;;12.85;3.60;;;;;;;;;;5076943;28;20251;-36
2024/02/11 08:09:56;;;;;;;8.67;3.97;;;;;;;;;;5076688;28;20034;-36
2024/02/11 08:12:21;;;;;;;10.75;3.85;;;;;;;;;;5076533;28;20271;-36
2024/02/11 08:14:47;;;;;;;7.70;3.50;;;;;;;;;;5076885;28;20032;-36
2024/02/11 08:17:12;;;;;;;12.70;3.90;;;;;;;;;;5076507;28;20027;-36
2024/02/11 08:19:38;;;;;;;12.32;3.60;;;;;;;;;;5076670;28;20103;-36
2024/02/11 08:22:06;;;;;;;17.27;4.10;;;;;;;;;;5076679;28;20013;-35
2024/02/11 08:24:33;;;;;;;12.63;4.15;;;;;;;;;;5077004;28;20016;-36
2024/02/11 08:26:58;;;;;;;11.57;4.05;;;;;;;;;;5076771;28;20472;-36
2024/02/11 08:29:23;;;;;;;13.70;4.40;;;;;;;;;;5076564;28;20027;-35
2024/02/11 08:31:50;;;;;;;13.25;4.65;;;;;;;;;;5076184;28;20020;-37
2024/02/11 08:34:15;;;;;;;10.82;4.68;;;;;;;;;;5076446;28;20021;-36
2024/02/11 08:36:41;;;;;;;11.32;5.10;;;;;;;;;;5076401;28;20472;-36
2024/02/11 08:39:06;;;;;;;11.75;4.63;;;;;;;;;;5076546;28;20364;-36
2024/02/11 08:41:33;;;;;;;11.10;4.50;;;;;;;;;;5076051;28;20016;-41
2024/02/11 08:43:59;;;;;;;11.60;4.60;;;;;;;;;;5076306;28;20095;-36
2024/02/11 08:46:24;;;;;;;13.60;4.72;;;;;;;;;;5076261;28;20044;-36
2024/02/11 08:48:50;;;;;;;15.10;4.77;;;;;;;;;;5075926;28;20021;-36
2024/02/11 08:51:20;;;;;;;14.07;5.97;;;;;;;;;;5075857;28;20263;-36
2024/02/11 08:53:45;;;;;;;14.10;5.72;;;;;;;;;;5076092;28;20012;-36
2024/02/11 08:56:10;;;;;;;12.07;6.37;;;;;;;;;;5075712;28;20013;-35
2024/02/11 08:58:35;;;;;;;15.13;7.13;;;;;;;;;;5075812;28;20286;-35
2024/02/11 09:01:01;;;;;;;10.43;6.53;;;;;;;;;;5075124;28;20023;-36
2024/02/11 09:03:26;;;;;;;14.67;6.70;;;;;;;;;;5075785;28;20270;-37
2024/02/11 09:05:52;;;;;;;19.70;7.85;;;;;;;;;;5075570;28;20287;-37
2024/02/11 09:08:18;;;;;;;20.23;7.80;;;;;;;;;;5075831;28;20059;-37
2024/02/11 09:10:43;;;;;;;16.90;8.10;;;;;;;;;;5075700;28;20103;-37
2024/02/11 09:13:10;;;;;;;20.20;8.02;;;;;;;;;;5075382;28;20117;-37
2024/02/11 09:15:36;;;;;;;23.35;8.75;;;;;;;;;;5075460;28;20151;-38
2024/02/11 09:18:01;;;;;;;21.08;8.57;;;;;;;;;;5075580;28;20500;-38
2024/02/11 09:20:26;;;;;;;25.67;8.60;;;;;;;;;;5075263;28;20479;-37
2024/02/11 09:22:52;;;;;;;17.80;7.90;;;;;;;;;;5075752;28;20343;-38
2024/02/11 09:25:17;;;;;;;23.02;7.88;;;;;;;;;;5075138;28;20266;-38
2024/02/11 09:27:43;;;;;;;22.88;7.80;;;;;;;;;;5075442;28;20016;-37
2024/02/11 09:30:11;;;;;;;24.40;8.37;;;;;;;;;;5075158;28;20028;-37
2024/02/11 09:32:36;;;;;;;20.73;8.25;;;;;;;;;;5075328;28;20338;-37
2024/02/11 09:35:02;;;;;;;20.80;8.37;;;;;;;;;;5074980;28;20048;-37
2024/02/11 09:37:27;;;;;;;18.05;8.20;;;;;;;;;;5074978;28;20255;-37
2024/02/11 09:39:52;;;;;;;22.23;9.15;;;;;;;;;;5075156;28;20016;-38
2024/02/11 09:42:20;;;;;;;22.00;9.13;;;;;;;;;;5075089;28;20066;-37
2024/02/11 09:44:46;;;;;;;20.90;9.23;;;;;;;;;;5074781;28;20021;-37
2024/02/11 09:47:12;;;;;;;25.30;9.25;;;;;;;;;;5075040;28;20036;-37
2024/02/11 09:49:38;;;;;;;23.77;9.93;;;;;;;;;;5075280;28;20025;-38
2024/02/11 09:52:04;;;;;;;27.85;10.07;;;;;;;;;;5074701;28;20459;-38
2024/02/11 09:54:31;;;;;;;24.00;9.88;;;;;;;;;;5074484;28;20028;-37
2024/02/11 09:56:56;;;;;;;23.27;9.68;;;;;;;;;;5074778;28;20379;-37
2024/02/11 09:59:26;;;;;;;26.23;10.10;;;;;;;;;;5074362;28;20017;-37
2024/02/11 10:01:51;;;;;;;28.45;10.70;;;;;;;;;;5074712;28;20012;-38
2024/02/11 10:04:17;;;;;;;29.50;11.23;;;;;;;;;;5074961;28;20016;-37
2024/02/11 10:06:42;;;;;;;24.02;11.10;;;;;;;;;;5074248;28;20487;-37
2024/02/11 10:09:12;;;;;;;26.83;11.25;;;;;;;;;;5074260;28;20021;-38
2024/02/11 10:11:38;;;;;;;26.90;11.63;;;;;;;;;;5074511;28;20095;-37
2024/02/11 10:14:08;;;;;;;27.23;12.52;;;;;;;;;;5074484;28;20062;-38
2024/02/11 10:16:34;;;;;;;28.77;12.82;;;;;;;;;;5074471;28;20021;-37
2024/02/11 10:18:59;;;;;;;30.70;12.95;;;;;;;;;;5074103;28;20533;-38
2024/02/11 10:21:25;;;;;;;29.67;12.55;;;;;;;;;;5074642;28;20036;-38
2024/02/11 10:23:50;;;;;;;23.48;11.50;;;;;;;;;;5074399;28;20038;-38
2024/02/11 10:26:15;;;;;;;27.70;13.05;;;;;;;;;;5074032;28;20096;-38
2024/02/11 10:28:40;;;;;;;23.13;12.82;;;;;;;;;;5073960;28;20031;-38
2024/02/11 10:31:06;;;;;;;27.67;12.75;;;;;;;;;;5073912;28;20058;-37
2024/02/11 10:33:32;;;;;;;28.25;13.30;;;;;;;;;;5073895;28;20017;-38
2024/02/11 10:35:58;;;;;;;29.15;14.15;;;;;;;;;;5074146;28;20024;-37
2024/02/11 10:38:24;;;;;;;29.95;13.75;;;;;;;;;;5074275;28;20016;-37
2024/02/11 10:40:49;;;;;;;26.60;13.23;;;;;;;;;;5073832;28;20016;-37
2024/02/11 10:43:16;;;;;;;29.50;14.07;;;;;;;;;;5073793;28;20030;-37
2024/02/11 10:45:41;;;;;;;31.50;13.07;;;;;;;;;;5073820;28;20104;-38
2024/02/11 10:48:06;;;;;;;33.75;14.68;;;;;;;;;;5074024;28;20040;-37
2024/02/11 10:50:32;;;;;;;26.05;13.52;;;;;;;;;;5073947;28;20515;-38
2024/02/11 10:53:01;;;;;;;33.70;13.52;;;;;;;;;;5073950;28;20522;-37
2024/02/11 10:55:29;;;;;;;28.27;12.82;;;;;;;;;;5073798;28;20020;-37
2024/02/11 10:57:55;;;;;;;26.23;13.05;;;;;;;;;;5073907;28;20062;-37
2024/02/11 11:00:24;;;;;;;26.50;13.43;;;;;;;;;;5073461;28;20027;-38
2024/02/11 11:02:50;;;;;;;24.45;12.98;;;;;;;;;;5073738;28;20046;-37
2024/02/11 11:05:17;;;;;;;29.05;13.73;;;;;;;;;;5073492;28;20147;-37
2024/02/11 11:07:45;;;;;;;28.67;13.05;;;;;;;;;;5073663;28;20025;-37
2024/02/11 11:10:10;;;;;;;25.35;12.77;;;;;;;;;;5073414;28;20020;-37
2024/02/11 11:12:37;;;;;;;25.38;12.27;;;;;;;;;;5073479;28;20111;-37
2024/02/11 11:15:08;;;;;;;27.45;11.98;;;;;;;;;;5073715;28;20016;-37
2024/02/11 11:17:35;;;;;;;28.17;12.07;;;;;;;;;;5073251;28;20059;-37
2024/02/11 11:20:00;;;;;;;29.40;12.90;;;;;;;;;;5073495;28;20028;-37
2024/02/11 11:22:28;;;;;;;25.97;12.63;;;;;;;;;;5073585;28;20464;-38
2024/02/11 11:24:57;;;;;;;33.97;13.00;;;;;;;;;;5076440;28;20239;-37
2024/02/11 11:27:23;;;;;;;25.70;12.57;;;;;;;;;;5079814;28;20012;-37
2024/02/11 11:29:49;;;;;;;22.85;11.63;;;;;;;;;;5080127;28;20537;-37
2024/02/11 11:32:19;;;;;;;24.98;12.77;;;;;;;;;;5079987;28;20032;-37
2024/02/11 11:34:45;;;;;;;27.52;12.73;;;;;;;;;;5079840;28;20020;-38
2024/02/11 11:37:13;;;;;;;30.17;13.05;;;;;;;;;;5080071;28;20074;-38
2024/02/11 11:39:39;;;;;;;30.98;12.77;;;;;;;;;;5080017;28;20442;-38
2024/02/11 11:42:05;;;;;;;36.47;14.00;;;;;;;;;;5079758;28;20027;-38
2024/02/11 11:44:30;;;;;;;25.88;12.82;;;;;;;;;;5080001;28;20047;-38
2024/02/11 11:46:55;;;;;;;28.00;13.30;;;;;;;;;;5079681;28;20091;-38
2024/02/11 11:49:21;;;;;;;30.17;13.70;;;;;;;;;;5079595;28;20115;-38
2024/02/11 11:51:47;;;;;;;29.77;13.27;;;;;;;;;;5079917;28;20099;-38
2024/02/11 11:54:17;;;;;;;27.88;14.05;;;;;;;;;;5079917;28;20016;-38
2024/02/11 11:56:42;;;;;;;29.15;13.20;;;;;;;;;;5078371;28;20083;-38
2024/02/11 11:59:08;;;;;;;33.77;13.97;;;;;;;;;;5079554;28;20059;-38
2024/02/11 12:01:33;;;;;;;27.75;14.48;;;;;;;;;;5079535;28;20281;-38
2024/02/11 12:03:59;;;;;;;31.50;14.52;;;;;;;;;;5079571;28;20013;-38
2024/02/11 12:06:26;;;;;;;31.48;14.20;;;;;;;;;;5079397;28;20047;-38
2024/02/11 12:08:52;;;;;;;31.98;14.60;;;;;;;;;;5079748;28;20024;-38
2024/02/11 12:11:18;;;;;;;34.65;14.68;;;;;;;;;;5078113;28;20017;-38
2024/02/11 12:13:43;;;;;;;33.33;14.48;;;;;;;;;;5079731;28;20022;-38
2024/02/11 12:16:15;;;;;;;31.92;14.90;;;;;;;;;;5079673;28;20463;-38
2024/02/11 12:18:40;;;;;;;29.48;14.93;;;;;;;;;;5079580;28;20017;-40
2024/02/11 12:21:07;;;;;;;33.30;14.50;;;;;;;;;;5079509;28;20460;-38
2024/02/11 12:23:33;;;;;;;30.23;14.18;;;;;;;;;;5079579;28;20282;-38
2024/02/11 12:26:06;;;;;;;33.33;15.20;;;;;;;;;;5079681;28;20012;-37
2024/02/11 12:28:32;;;;;;;28.48;13.88;;;;;;;;;;5079294;28;20036;-38
2024/02/11 12:31:10;;;;;;;37.25;14.38;;;;;;;;;;5079834;28;20060;-38
2024/02/11 12:33:37;;;;;;;29.90;14.57;;;;;;;;;;5079594;28;20107;-38
2024/02/11 12:36:10;;;;;;;29.08;15.18;;;;;;;;;;5077306;28;20035;-38
2024/02/11 12:38:36;;;;;;;34.15;15.48;;;;;;;;;;5076358;28;20021;-37
2024/02/11 12:41:02;;;;;;;32.22;15.93;;;;;;;;;;5076280;28;20074;-38
2024/02/11 12:43:28;;;;;;;30.33;15.60;;;;;;;;;;5075942;28;20080;-38
2024/02/11 12:45:53;;;;;;;28.10;14.90;;;;;;;;;;5075917;28;20527;-38
2024/02/11 12:48:18;;;;;;;39.30;14.73;;;;;;;;;;5076420;28;20073;-38
2024/02/11 12:50:44;;;;;;;31.00;15.17;;;;;;;;;;5075907;28;20738;-37
2024/02/11 12:53:10;;;;;;;32.58;14.68;;;;;;;;;;5075719;28;20258;-37
2024/02/11 12:55:35;;;;;;;32.33;14.32;;;;;;;;;;5076382;28;20021;-38
2024/02/11 12:58:01;;;;;;;29.03;14.37;;;;;;;;;;5075923;28;20154;-38
2024/02/11 13:00:26;;;;;;;31.40;14.33;;;;;;;;;;5076450;28;20253;-38
2024/02/11 13:02:51;;;;;;;28.25;13.30;;;;;;;;;;5075847;28;20263;-38
2024/02/11 13:05:18;;;;;;;24.70;12.55;;;;;;;;;;5075577;28;20062;-38
2024/02/11 13:07:44;;;;;;;26.65;12.52;;;;;;;;;;5075563;28;20052;-38
2024/02/11 13:10:09;;;;;;;27.25;12.48;;;;;;;;;;5075736;28;20020;-38
2024/02/11 13:12:38;;;;;;;24.80;12.82;;;;;;;;;;5075664;28;20013;-38
2024/02/11 13:15:05;;;;;;;31.17;13.05;;;;;;;;;;5075682;28;20016;-38
2024/02/11 13:17:30;;;;;;;31.33;12.52;;;;;;;;;;5075409;28;20387;-38
2024/02/11 13:19:55;;;;;;;29.40;12.67;;;;;;;;;;5075288;28;20021;-38
2024/02/11 13:22:20;;;;;;;31.50;13.30;;;;;;;;;;5075702;28;20270;-38
2024/02/11 13:24:45;;;;;;;32.37;13.50;;;;;;;;;;5075220;28;20346;-38
2024/02/11 13:27:10;;;;;;;35.60;13.43;;;;;;;;;;5075734;28;20247;-38
2024/02/11 13:29:36;;;;;;;34.13;13.20;;;;;;;;;;5075217;28;20254;-38
2024/02/11 13:32:01;;;;;;;28.52;13.48;;;;;;;;;;5075127;28;20253;-38
2024/02/11 13:34:26;;;;;;;26.57;13.60;;;;;;;;;;5075255;28;20378;-37
2024/02/11 13:36:52;;;;;;;35.85;13.80;;;;;;;;;;5075173;28;20257;-37
2024/02/11 13:39:18;;;;;;;34.13;13.20;;;;;;;;;;5074927;28;20033;-37
2024/02/11 13:41:43;;;;;;;35.70;14.02;;;;;;;;;;5075141;28;20075;-36
2024/02/11 13:44:08;;;;;;;25.60;13.05;;;;;;;;;;5074814;28;20017;-37
2024/02/11 13:46:34;;;;;;;30.00;12.27;;;;;;;;;;5075130;28;20025;-37
2024/02/11 13:48:59;;;;;;;35.83;13.90;;;;;;;;;;5074677;28;20099;-37
2024/02/11 13:51:24;;;;;;;33.03;13.27;;;;;;;;;;5074787;28;20091;-37
2024/02/11 13:53:49;;;;;;;25.40;12.30;;;;;;;;;;5074676;28;20529;-37
2024/02/11 13:56:14;;;;;;;26.08;11.57;;;;;;;;;;5074828;28;20254;-37
2024/02/11 13:58:41;;;;;;;26.13;11.90;;;;;;;;;;5074471;28;20020;-37
2024/02/11 14:01:09;;;;;;;27.15;11.88;;;;;;;;;;5075023;28;20350;-38
2024/02/11 14:03:34;;;;;;;25.35;11.40;;;;;;;;;;5074760;28;20553;-38
2024/02/11 14:06:00;;;;;;;23.83;10.25;;;;;;;;;;5074250;28;20080;-37
2024/02/11 14:08:25;;;;;;;26.15;10.98;;;;;;;;;;5074328;28;20097;-38
2024/02/11 14:10:50;;;;;;;23.53;10.13;;;;;;;;;;5074864;28;20029;-38